Accueil
METAR-TAF:

METAR-TAF

Aéroports :

Base aérienne de Chièvres

Chièvres, Belgique

latitude: 50-34N, longitude: 003-50E, altitude: 60 m

Observation

Le bulletin a été fait il y a 19 minutes, à 13:55 UTC
Vent 6 kt de ouest/sud-ouest
Température 20°C
Humidité 78%
Pression 1025 hPa
Visibilité 10 km ou plus

METAR: EBCV 191355Z AUTO 25006KT 9999 OVC020/// 20/16 Q1025 WHT

Heure: 16:14 (14:14 UTC)

Prévision

Le bulletin a été fait il y a 2 heures et 33 minutes, à 11:41 UTC
Prévision valable du 19 à 13 UTC au 19 à 22 UTC
Vent 6 kt de ouest
Visibilité 10 km ou plus
Nuages fragmentés à une hauteur de 2200 ft
Evoluant progressivement
du 19 à 18 UTC au 19 à 20 UTC
Nuages fragmentés à une hauteur de 2500 ft

TAF: EBCV 191141Z 1913/1922 26006KT 9999 NSW BKN022 BECMG 1918/1920 BKN025

Observations et prévisions météorologiques de plus de 4000 aéroports (messages METAR et TAF).

Les stations disponibles sont représentées par des disques jaunes et rouges sur la carte.

Passer la souris dessus pour voir le nom de la station.

Cliquer dessus pour voir les observations et prévisions météorologiques.

Pour changer de carte: cliquez sur les boutons verts avec une croix noire pour zoomer, sur le bouton vert avec un tiret pour effectuer un zoom arrière, ou sur les flèches vertes pour les cartes adjacentes.


METAR-TAF: